Terminal Aerodrome Forecast
Issued by NWS Pocatello, ID

Home | Current Version | Previous Version | Text Only | Print | Product List | Glossary On
Versions: 1 2 3 4 5 6 7 8 9 10 11 12 13 14 15
000
FTUS45 KPIH 020520
TAFBYI
TAF
KBYI 020520Z 0206/0306 VRB06KT P6SM FEW120
     FM021600 27013G23KT P6SM VCSH SCT070 BKN120
     FM030200 21009KT P6SM SCT120=

USA.gov is the U.S. government's official web portal to all federal, state and local government web resources and services.